Time;durP1;ratioP1;P1;durP2;ratioP2;P2;SDS_P1;SDS_P2;PMS_P1;PMS_P2;Temp;Humidity;BMP_temperature;BMP_pressure;BME280_temperature;BME280_humidity;BME280_pressure;Samples;Min_cycle;Max_cycle;Signal;HPM_P1;HPM_P2
2023/08/07 00:00:13;;;;;;;2.22;2.03;;;;;;;11.00;100.00;94085.88;5014266;28;20244;-67
2023/08/07 00:02:38;;;;;;;1.92;1.80;;;;;;;10.89;100.00;94043.19;5014302;28;20527;-67
2023/08/07 00:05:05;;;;;;;1.90;1.80;;;;;;;10.81;100.00;93998.56;5016492;28;20328;-67
2023/08/07 00:07:30;;;;;;;1.98;1.83;;;;;;;10.87;100.00;93986.47;5012882;28;20030;-67
2023/08/07 00:09:56;;;;;;;2.05;1.95;;;;;;;10.91;100.00;93950.06;5013902;28;20037;-67
2023/08/07 00:12:21;;;;;;;2.78;1.70;;;;;;;10.97;100.00;93907.19;5014099;28;20742;-66
2023/08/07 00:14:50;;;;;;;1.90;1.80;;;;;;;10.97;100.00;93889.56;5013353;28;20034;-67
2023/08/07 00:17:15;;;;;;;2.00;1.85;;;;;;;10.97;100.00;93883.50;5013718;28;20113;-67
2023/08/07 00:19:41;;;;;;;2.17;1.90;;;;;;;10.96;100.00;93887.13;5013885;28;20049;-67
2023/08/07 00:22:06;;;;;;;2.88;2.10;;;;;;;10.89;100.00;93902.88;5013997;28;20044;-66
2023/08/07 00:24:32;;;;;;;2.35;2.17;;;;;;;10.81;100.00;93913.50;5028027;28;20034;-67
2023/08/07 00:26:58;;;;;;;2.78;2.13;;;;;;;10.78;100.00;93909.44;5012532;28;20132;-67
2023/08/07 00:29:23;;;;;;;2.65;1.70;;;;;;;10.75;100.00;93933.50;5013360;28;20038;-67
2023/08/07 00:31:49;;;;;;;2.15;2.00;;;;;;;10.70;100.00;93978.78;5013751;28;20383;-67
2023/08/07 00:34:15;;;;;;;2.38;1.73;;;;;;;10.66;100.00;94053.88;5013720;28;20034;-67
2023/08/07 00:36:40;;;;;;;1.90;1.80;;;;;;;10.66;100.00;94725.03;5010829;28;20030;-66
2023/08/07 00:39:07;;;;;;;2.47;2.28;;;;;;;10.60;100.00;94826.53;5013706;28;20054;-67
2023/08/07 00:41:33;;;;;;;2.20;2.05;;;;;;;10.45;100.00;94951.81;5013573;28;20033;-67
2023/08/07 00:43:58;;;;;;;3.03;1.73;;;;;;;10.44;100.00;94985.22;5013877;28;20065;-66
2023/08/07 00:46:24;;;;;;;1.80;1.70;;;;;;;10.39;100.00;94995.38;5013394;28;20577;-67
2023/08/07 00:48:51;;;;;;;2.15;1.95;;;;;;;10.36;100.00;95018.53;5014451;28;20589;-66
2023/08/07 00:51:17;;;;;;;1.92;1.83;;;;;;;10.32;100.00;95024.13;5013560;28;20026;-67
2023/08/07 00:53:43;;;;;;;2.00;1.90;;;;;;;10.33;100.00;95040.72;5012333;28;20026;-67
2023/08/07 00:56:08;;;;;;;1.90;1.80;;;;;;;10.29;100.00;94919.19;5012403;28;20066;-67
2023/08/07 00:58:34;;;;;;;2.05;1.85;;;;;;;10.23;100.00;94935.59;5012374;28;20105;-67
2023/08/07 01:00:59;;;;;;;2.15;1.98;;;;;;;10.21;100.00;94926.25;5015637;28;20045;-66
2023/08/07 01:03:25;;;;;;;2.08;1.90;;;;;;;10.21;100.00;94924.41;5013312;28;20026;-67
2023/08/07 01:05:50;;;;;;;1.90;1.80;;;;;;;10.09;100.00;94920.44;5013222;28;20034;-67
2023/08/07 01:08:16;;;;;;;3.55;2.20;;;;;;;10.08;100.00;94916.16;5012719;28;20461;-67
2023/08/07 01:10:54;;;;;;;1.77;1.67;;;;;;;10.11;100.00;94831.69;5012525;28;20049;-67
2023/08/07 01:13:35;;;;;;;2.63;2.08;;;;;;;10.11;100.00;94639.69;5012792;28;20084;-67
2023/08/07 01:16:08;;;;;;;2.30;2.00;;;;;;;10.12;100.00;94638.69;5044118;28;20060;-67
2023/08/07 01:18:36;;;;;;;2.15;1.95;;;;;;;10.17;100.00;94625.88;5007160;28;20442;-67
2023/08/07 01:21:03;;;;;;;1.95;1.80;;;;;;;10.16;100.00;94592.66;5012949;28;20525;-67
2023/08/07 01:23:28;;;;;;;2.63;2.00;;;;;;;10.06;100.00;94608.63;5013073;28;20437;-67
2023/08/07 01:25:54;;;;;;;2.30;1.92;;;;;;;9.98;100.00;94617.31;5013106;28;20117;-67
2023/08/07 01:28:36;;;;;;;2.38;2.20;;;;;;;10.03;100.00;94614.22;5016324;28;20046;-66
2023/08/07 01:31:10;;;;;;;2.08;1.98;;;;;;;9.98;100.00;94606.81;5016972;28;20102;-66
2023/08/07 01:33:54;;;;;;;3.17;2.20;;;;;;;9.91;100.00;94595.31;5016788;28;20542;-67
2023/08/07 01:36:22;;;;;;;2.47;2.25;;;;;;;9.84;100.00;94576.75;5016824;28;20053;-67
2023/08/07 01:38:50;;;;;;;2.45;2.30;;;;;;;9.75;100.00;94565.41;5015034;28;20057;-67
2023/08/07 01:41:15;;;;;;;2.38;2.17;;;;;;;9.80;100.00;94537.81;5016797;28;20057;-66
2023/08/07 01:43:41;;;;;;;3.92;2.30;;;;;;;9.82;100.00;94531.41;5016256;28;20084;-67
2023/08/07 01:46:06;;;;;;;2.50;2.30;;;;;;;9.80;100.00;94496.59;5016579;28;20038;-66
2023/08/07 01:48:32;;;;;;;2.60;2.38;;;;;;;9.74;100.00;94469.16;5015133;28;20034;-67
2023/08/07 01:50:57;;;;;;;3.10;2.20;;;;;;;9.68;100.00;94421.69;5017674;28;20080;-66
2023/08/07 01:53:22;;;;;;;2.38;2.25;;;;;;;9.68;100.00;94383.09;5016390;28;20033;-66
2023/08/07 01:55:48;;;;;;;2.55;2.35;;;;;;;9.73;100.00;94343.19;5016361;28;20577;-66
2023/08/07 01:58:13;;;;;;;3.10;2.15;;;;;;;9.78;100.00;94316.38;5015925;28;20029;-66
2023/08/07 02:00:38;;;;;;;2.30;2.10;;;;;;;9.79;100.00;94302.22;5015033;28;20032;-66
2023/08/07 02:03:04;;;;;;;2.60;2.40;;;;;;;9.79;100.00;94284.66;5015971;28;20605;-66
2023/08/07 02:05:29;;;;;;;4.13;2.22;;;;;;;9.76;100.00;94256.09;5031547;28;20029;-66
2023/08/07 02:07:56;;;;;;;2.53;2.05;;;;;;;9.77;100.00;94251.66;5015972;28;20057;-66
2023/08/07 02:10:22;;;;;;;2.38;2.17;;;;;;;9.74;100.00;94234.44;5014644;28;20045;-66
2023/08/07 02:12:48;;;;;;;2.90;2.08;;;;;;;9.74;100.00;94227.34;5015678;28;20031;-66
2023/08/07 02:15:13;;;;;;;6.00;2.53;;;;;;;9.70;100.00;94233.13;5016015;28;20118;-67
2023/08/07 02:17:40;;;;;;;2.40;2.20;;;;;;;9.71;100.00;94225.06;5016090;28;20097;-66
2023/08/07 02:20:07;;;;;;;2.13;2.03;;;;;;;9.72;100.00;94200.44;5016074;28;20046;-66
2023/08/07 02:22:32;;;;;;;2.03;1.83;;;;;;;9.73;100.00;94180.25;5015722;28;20034;-66
2023/08/07 02:24:57;;;;;;;2.17;1.98;;;;;;;9.68;100.00;94170.25;5031088;28;20594;-66
2023/08/07 02:27:23;;;;;;;2.50;2.40;;;;;;;9.70;100.00;94167.41;5015181;28;20058;-66
2023/08/07 02:29:48;;;;;;;2.85;2.10;;;;;;;9.71;100.00;94148.88;5014589;28;20097;-66
2023/08/07 02:32:14;;;;;;;2.28;1.98;;;;;;;9.74;100.00;94138.00;5015882;28;20494;-66
2023/08/07 02:34:39;;;;;;;2.20;2.10;;;;;;;9.72;100.00;94116.34;5016314;28;20058;-66
2023/08/07 02:37:04;;;;;;;2.67;2.47;;;;;;;9.72;100.00;94116.34;5015043;28;20036;-66
2023/08/07 02:39:30;;;;;;;2.40;2.20;;;;;;;9.77;100.00;94099.22;5013761;28;20065;-66
2023/08/07 02:41:55;;;;;;;2.83;2.53;;;;;;;9.83;100.00;94098.50;5015895;28;20587;-66
2023/08/07 02:44:21;;;;;;;2.20;2.10;;;;;;;9.78;100.00;94104.31;5002141;28;20030;-66
2023/08/07 02:46:46;;;;;;;2.10;2.00;;;;;;;9.72;100.00;94105.00;5015603;28;20057;-67
2023/08/07 02:49:12;;;;;;;2.30;2.20;;;;;;;9.73;100.00;94107.47;5017187;28;20030;-66
2023/08/07 02:51:37;;;;;;;2.40;2.20;;;;;;;9.77;100.00;94100.06;4998136;28;20390;-66
2023/08/07 02:54:03;;;;;;;2.17;2.08;;;;;;;9.70;100.00;94105.19;5015898;28;20041;-66
2023/08/07 02:56:28;;;;;;;2.65;2.42;;;;;;;9.72;100.00;94120.75;5014585;28;20060;-67
2023/08/07 02:58:53;;;;;;;2.20;2.10;;;;;;;9.74;100.00;94119.59;5025209;28;20434;-67
2023/08/07 03:01:20;;;;;;;2.88;2.25;;;;;;;9.78;100.00;94121.88;5015137;28;20112;-67
2023/08/07 03:03:46;;;;;;;2.63;2.42;;;;;;;9.80;100.00;94118.09;5004365;28;20038;-67
2023/08/07 03:06:11;;;;;;;5.22;2.25;;;;;;;9.83;100.00;94099.34;5013566;28;20073;-66
2023/08/07 03:08:37;;;;;;;2.38;2.17;;;;;;;9.82;100.00;94104.75;5015384;28;20037;-67
2023/08/07 03:11:02;;;;;;;2.50;2.28;;;;;;;9.85;100.00;94107.06;5014755;28;20017;-66
2023/08/07 03:13:28;;;;;;;2.33;2.13;;;;;;;9.87;100.00;94099.81;5015280;28;20033;-66
2023/08/07 03:16:01;;;;;;;3.70;2.10;;;;;;;9.90;100.00;94094.19;5002599;28;20096;-66
2023/08/07 03:18:28;;;;;;;2.78;1.90;;;;;;;9.86;100.00;94100.81;5015293;28;20018;-66
2023/08/07 03:20:55;;;;;;;2.38;2.22;;;;;;;9.82;100.00;94089.81;5014964;28;20084;-67
2023/08/07 03:23:21;;;;;;;2.38;2.17;;;;;;;9.86;100.00;94072.69;5014600;28;20056;-67
2023/08/07 03:25:46;;;;;;;2.40;2.20;;;;;;;9.87;100.00;94078.78;5013902;28;20093;-66
2023/08/07 03:28:11;;;;;;;2.40;2.20;;;;;;;9.84;100.00;94092.28;5020831;28;20089;-67
2023/08/07 03:30:38;;;;;;;2.20;2.08;;;;;;;9.80;100.00;94096.22;5015165;28;20033;-66
2023/08/07 03:33:03;;;;;;;2.15;2.05;;;;;;;9.77;100.00;94110.56;5021740;28;20026;-66
2023/08/07 03:35:28;;;;;;;2.25;2.13;;;;;;;9.72;100.00;94118.97;5015074;28;20022;-67
2023/08/07 03:37:54;;;;;;;2.40;2.30;;;;;;;9.68;100.00;94122.09;5014811;28;20109;-66
2023/08/07 03:40:19;;;;;;;3.45;1.98;;;;;;;9.66;100.00;94139.88;5014461;28;20372;-66
2023/08/07 03:42:44;;;;;;;2.45;2.10;;;;;;;9.60;100.00;94167.66;5014337;28;20026;-67
2023/08/07 03:45:10;;;;;;;2.33;2.13;;;;;;;9.57;100.00;94178.50;5014686;28;20034;-67
2023/08/07 03:47:35;;;;;;;2.53;2.38;;;;;;;9.54;100.00;94181.47;5014353;28;20141;-67
2023/08/07 03:50:01;;;;;;;1.80;1.80;;;;;;;9.52;100.00;94196.59;5015636;28;20025;-67
2023/08/07 03:52:27;;;;;;;2.33;2.15;;;;;;;9.53;100.00;94201.69;5014461;28;20034;-67
2023/08/07 03:54:52;;;;;;;2.58;2.20;;;;;;;9.54;100.00;94215.63;5014521;28;20049;-67
2023/08/07 03:57:18;;;;;;;2.50;2.30;;;;;;;9.50;100.00;94246.66;5014359;28;20243;-67
2023/08/07 03:59:43;;;;;;;2.15;2.05;;;;;;;9.46;100.00;94269.84;5014123;28;20026;-67
2023/08/07 04:02:08;;;;;;;4.30;2.10;;;;;;;9.46;100.00;94297.91;5014143;28;20026;-66
2023/08/07 04:04:34;;;;;;;2.15;2.05;;;;;;;9.49;100.00;94313.34;5013310;28;20053;-66
2023/08/07 04:06:59;;;;;;;2.10;2.00;;;;;;;9.51;100.00;94340.28;5013029;28;20069;-66
2023/08/07 04:09:25;;;;;;;2.10;2.00;;;;;;;9.44;100.00;94373.44;5014109;28;20059;-67
2023/08/07 04:11:50;;;;;;;2.40;2.20;;;;;;;9.44;100.00;94390.06;5013911;28;20041;-66
2023/08/07 04:14:15;;;;;;;3.85;2.17;;;;;;;9.40;100.00;94407.13;5014145;28;20104;-66
2023/08/07 04:16:41;;;;;;;2.10;2.00;;;;;;;9.35;100.00;94435.69;5014152;28;20029;-66
2023/08/07 04:19:09;;;;;;;2.58;2.30;;;;;;;9.34;100.00;94455.06;5014355;28;20022;-66
2023/08/07 04:21:34;;;;;;;2.30;2.20;;;;;;;9.30;100.00;94465.09;5013486;28;20627;-66
2023/08/07 04:24:00;;;;;;;2.20;2.00;;;;;;;9.26;100.00;94471.63;5014154;28;20022;-66
2023/08/07 04:26:26;;;;;;;3.85;2.10;;;;;;;9.24;100.00;94470.16;5013735;28;20030;-67
2023/08/07 04:28:52;;;;;;;3.00;2.80;;;;;;;9.17;100.00;94467.38;5013923;28;20037;-66
2023/08/07 04:31:18;;;;;;;2.20;2.03;;;;;;;9.17;100.00;94457.72;5013751;28;20060;-66
2023/08/07 04:33:44;;;;;;;2.50;2.30;;;;;;;9.18;100.00;94437.50;5013889;28;20398;-66
2023/08/07 04:36:09;;;;;;;2.13;2.00;;;;;;;9.11;100.00;94421.56;5012167;28;20026;-66
2023/08/07 04:38:34;;;;;;;2.95;2.60;;;;;;;9.07;100.00;94422.09;5013271;28;20592;-66
2023/08/07 04:41:00;;;;;;;2.30;2.20;;;;;;;9.12;100.00;94422.41;5012313;28;20113;-66
2023/08/07 04:43:25;;;;;;;2.58;2.25;;;;;;;9.14;100.00;94410.75;5013844;28;20029;-66
2023/08/07 04:45:51;;;;;;;2.70;2.50;;;;;;;9.17;100.00;94409.59;5012132;28;20033;-66
2023/08/07 04:48:17;;;;;;;2.58;2.10;;;;;;;9.18;100.00;94408.63;5012231;28;20057;-66
2023/08/07 04:50:43;;;;;;;2.33;2.13;;;;;;;9.17;100.00;94415.69;5013780;28;20067;-66
2023/08/07 04:53:08;;;;;;;2.20;1.98;;;;;;;9.16;100.00;94423.72;5013905;28;20030;-66
2023/08/07 04:55:34;;;;;;;2.08;1.98;;;;;;;9.16;100.00;94432.41;5013788;28;20435;-66
2023/08/07 04:57:59;;;;;;;2.42;2.22;;;;;;;9.13;100.00;94435.34;5045435;28;20112;-66
2023/08/07 05:00:25;;;;;;;2.17;2.08;;;;;;;9.15;100.00;94445.72;4998478;28;20025;-66
2023/08/07 05:02:51;;;;;;;2.72;2.53;;;;;;;9.20;100.00;94461.78;5014830;28;20033;-66
2023/08/07 05:05:18;;;;;;;2.00;1.90;;;;;;;9.21;100.00;94462.63;5016910;28;20030;-66
2023/08/07 05:07:43;;;;;;;2.00;1.90;;;;;;;9.24;100.00;94475.44;5017248;28;20508;-66
2023/08/07 05:10:09;;;;;;;2.70;2.50;;;;;;;9.32;100.00;94491.19;5017415;28;20100;-66
2023/08/07 05:12:34;;;;;;;2.42;2.22;;;;;;;9.35;100.00;94503.97;5017400;28;20025;-66
2023/08/07 05:15:00;;;;;;;2.72;2.53;;;;;;;9.35;100.00;94517.09;5016540;28;20108;-66
2023/08/07 05:17:26;;;;;;;2.40;2.25;;;;;;;9.34;100.00;94535.69;5017983;28;20033;-66
2023/08/07 05:19:51;;;;;;;2.72;2.50;;;;;;;9.36;100.00;94549.47;5017568;28;20022;-66
2023/08/07 05:22:16;;;;;;;2.40;2.20;;;;;;;9.37;100.00;94551.09;5017979;28;20057;-66
2023/08/07 05:24:43;;;;;;;2.13;2.03;;;;;;;9.39;100.00;94555.19;5016720;28;20025;-67
2023/08/07 05:27:09;;;;;;;3.72;2.47;;;;;;;9.38;100.00;94574.56;5017136;28;20046;-66
2023/08/07 05:29:42;;;;;;;2.33;2.13;;;;;;;9.37;100.00;94577.38;5017189;28;20376;-66
2023/08/07 05:32:08;;;;;;;2.38;2.20;;;;;;;9.34;100.00;94588.22;5017120;28;20430;-66
2023/08/07 05:34:34;;;;;;;2.10;2.00;;;;;;;9.29;100.00;94594.78;5016768;28;20053;-66
2023/08/07 05:36:59;;;;;;;2.50;2.20;;;;;;;9.30;100.00;94592.94;5016092;28;20025;-66
2023/08/07 05:39:24;;;;;;;2.42;2.22;;;;;;;9.35;100.00;94601.16;5016820;28;20442;-67
2023/08/07 05:41:50;;;;;;;2.42;2.22;;;;;;;9.40;100.00;94609.41;5010849;28;20077;-66
2023/08/07 05:44:16;;;;;;;2.50;2.30;;;;;;;9.50;100.00;94618.94;5015360;28;20597;-67
2023/08/07 05:46:41;;;;;;;2.42;2.20;;;;;;;9.55;100.00;94641.13;5016966;28;20189;-67
2023/08/07 05:49:07;;;;;;;2.03;1.92;;;;;;;9.64;100.00;94657.72;5017307;28;20391;-67
2023/08/07 05:51:32;;;;;;;2.10;2.00;;;;;;;9.72;100.00;94680.56;5016798;28;20136;-67
2023/08/07 05:53:57;;;;;;;2.47;2.13;;;;;;;9.84;100.00;94696.88;5016203;28;20172;-67
2023/08/07 05:56:23;;;;;;;2.58;2.08;;;;;;;9.95;100.00;94712.31;5016415;28;20395;-67
2023/08/07 05:58:48;;;;;;;2.50;2.30;;;;;;;10.08;100.00;94737.31;5015917;28;20109;-67
2023/08/07 06:01:16;;;;;;;2.95;2.10;;;;;;;10.16;100.00;94761.00;4988644;28;20030;-67
2023/08/07 06:03:42;;;;;;;2.65;2.30;;;;;;;10.27;100.00;94784.34;5011863;28;20014;-67
2023/08/07 06:06:07;;;;;;;2.35;2.15;;;;;;;10.37;100.00;94812.31;5016796;28;20021;-66
2023/08/07 06:08:32;;;;;;;2.10;2.00;;;;;;;10.46;100.00;94830.63;5014845;28;20121;-67
2023/08/07 06:10:58;;;;;;;1.85;1.75;;;;;;;10.54;100.00;94864.03;5016290;28;20029;-67
2023/08/07 06:13:23;;;;;;;2.70;2.45;;;;;;;10.60;100.00;94888.84;5013910;28;20032;-67
2023/08/07 06:15:48;;;;;;;2.70;1.80;;;;;;;10.70;100.00;94907.13;5007185;28;20504;-66
2023/08/07 06:18:14;;;;;;;2.20;2.00;;;;;;;10.73;100.00;94926.06;5010869;28;20061;-67
2023/08/07 06:20:40;;;;;;;2.25;2.05;;;;;;;10.87;100.00;94955.41;5016371;28;20036;-66
2023/08/07 06:23:05;;;;;;;2.30;1.95;;;;;;;10.97;100.00;94985.03;5015493;28;20084;-66
2023/08/07 06:25:31;;;;;;;2.65;1.90;;;;;;;11.04;100.00;95006.28;5015765;28;20030;-67
2023/08/07 06:27:56;;;;;;;1.90;1.80;;;;;;;11.16;100.00;95035.78;5015081;28;20049;-67
2023/08/07 06:30:21;;;;;;;2.20;2.00;;;;;;;11.26;100.00;95075.16;5015843;28;20079;-67
2023/08/07 06:32:47;;;;;;;1.50;1.50;;;;;;;11.35;100.00;95094.47;5016284;28;20053;-67
2023/08/07 06:35:12;;;;;;;2.00;1.85;;;;;;;11.46;100.00;95123.97;5015721;28;20052;-67
2023/08/07 06:37:38;;;;;;;2.00;1.58;;;;;;;11.56;100.00;95144.91;5015612;28;20030;-67
2023/08/07 06:40:05;;;;;;;2.10;2.00;;;;;;;11.68;100.00;95160.41;5015706;28;20782;-67
2023/08/07 06:42:30;;;;;;;2.08;1.85;;;;;;;11.70;100.00;95176.91;5016095;28;20085;-67
2023/08/07 06:44:55;;;;;;;2.30;2.20;;;;;;;11.80;100.00;95184.66;5016216;28;20623;-67
2023/08/07 06:47:21;;;;;;;1.88;1.77;;;;;;;11.90;100.00;95174.81;5015929;28;20021;-67
2023/08/07 06:49:46;;;;;;;2.40;1.90;;;;;;;12.10;100.00;95169.25;5016185;28;20022;-67
2023/08/07 06:52:11;;;;;;;2.17;1.83;;;;;;;12.26;100.00;95173.72;5015578;28;20133;-67
2023/08/07 06:54:37;;;;;;;2.35;1.88;;;;;;;12.37;100.00;95188.38;5014716;28;20025;-67
2023/08/07 06:57:02;;;;;;;1.55;1.45;;;;;;;12.43;100.00;95217.59;5013600;28;20033;-67
2023/08/07 06:59:28;;;;;;;2.83;1.80;;;;;;;12.53;100.00;95225.34;5015238;28;20045;-67
2023/08/07 07:01:53;;;;;;;1.67;1.52;;;;;;;12.72;100.00;95233.94;5047175;28;20033;-67
2023/08/07 07:04:19;;;;;;;2.88;2.58;;;;;;;12.96;100.00;95242.81;4990876;28;20018;-67
2023/08/07 07:06:44;;;;;;;1.90;1.80;;;;;;;13.23;100.00;95248.69;5010087;28;20034;-67
2023/08/07 07:09:09;;;;;;;2.05;1.75;;;;;;;13.53;100.00;95262.16;5014392;28;20113;-67
2023/08/07 07:11:35;;;;;;;2.65;1.77;;;;;;;13.74;100.00;95278.28;5015566;28;20029;-67
2023/08/07 07:14:00;;;;;;;1.85;1.75;;;;;;;13.99;100.00;95285.31;5015801;28;20026;-67
2023/08/07 07:16:26;;;;;;;1.90;1.73;;;;;;;14.30;100.00;95317.06;5015313;28;20644;-67
2023/08/07 07:18:51;;;;;;;1.75;1.65;;;;;;;14.66;100.00;95326.28;5015667;28;20095;-67
2023/08/07 07:21:18;;;;;;;2.80;1.65;;;;;;;14.93;100.00;95358.56;5015625;28;20044;-67
2023/08/07 07:23:43;;;;;;;2.05;1.60;;;;;;;15.20;100.00;95392.66;5015192;28;20546;-67
2023/08/07 07:26:09;;;;;;;1.33;1.33;;;;;;;15.41;100.00;95414.03;5015024;28;20115;-67
2023/08/07 07:28:34;;;;;;;3.15;1.67;;;;;;;15.72;100.00;95418.38;5013438;28;20614;-67
2023/08/07 07:31:00;;;;;;;1.50;1.40;;;;;;;15.93;100.00;95487.75;5015237;28;20029;-67
2023/08/07 07:33:28;;;;;;;1.42;1.40;;;;;;;16.28;100.00;95472.94;5015975;28;20494;-67
2023/08/07 07:35:53;;;;;;;1.42;1.38;;;;;;;16.70;100.00;95478.59;5014961;28;20072;-67
2023/08/07 07:38:19;;;;;;;1.30;1.30;;;;;;;16.92;100.00;95502.56;5013926;28;20025;-67
2023/08/07 07:40:45;;;;;;;1.60;1.50;;;;;;;17.10;100.00;95535.97;5013412;28;20037;-67
2023/08/07 07:43:10;;;;;;;1.48;1.38;;;;;;;17.26;100.00;95566.81;5015028;28;20018;-67
2023/08/07 07:45:36;;;;;;;1.40;1.30;;;;;;;17.50;100.00;95571.00;5014381;28;20064;-67
2023/08/07 07:48:02;;;;;;;1.10;1.00;;;;;;;17.69;100.00;95585.50;5005673;28;20027;-67
2023/08/07 07:50:28;;;;;;;1.67;1.50;;;;;;;17.87;100.00;95593.06;5009949;28;20462;-67
2023/08/07 07:52:54;;;;;;;1.20;1.20;;;;;;;18.14;100.00;95596.00;5014884;28;20045;-67
2023/08/07 07:55:19;;;;;;;1.30;1.30;;;;;;;18.21;100.00;95595.25;5014494;28;20057;-67
2023/08/07 07:57:45;;;;;;;3.30;1.30;;;;;;;18.35;100.00;95601.50;5014808;28;20029;-67
2023/08/07 08:00:12;;;;;;;2.55;1.42;;;;;;;18.53;100.00;95619.66;5014043;28;20438;-67
2023/08/07 08:02:40;;;;;;;1.40;1.30;;;;;;;18.54;100.00;95645.31;5004366;28;20026;-67
2023/08/07 08:05:07;;;;;;;1.08;1.08;;;;;;;18.93;100.00;95648.47;5010427;28;20026;-67
2023/08/07 08:07:34;;;;;;;1.10;1.10;;;;;;;18.99;100.00;95698.38;5014368;28;20133;-67
2023/08/07 08:10:00;;;;;;;1.17;1.10;;;;;;;19.01;100.00;95728.38;5010630;28;20021;-67
2023/08/07 08:12:26;;;;;;;2.25;1.20;;;;;;;18.99;100.00;95757.88;5012996;28;20022;-67
2023/08/07 08:14:51;;;;;;;2.03;1.20;;;;;;;19.20;100.00;95747.38;5014166;28;20040;-67
2023/08/07 08:17:16;;;;;;;1.58;1.27;;;;;;;19.37;100.00;95738.06;5014162;28;20026;-67
2023/08/07 08:19:42;;;;;;;1.20;1.20;;;;;;;19.55;100.00;95753.53;5012737;28;20022;-67
2023/08/07 08:22:07;;;;;;;1.50;1.40;;;;;;;19.87;100.00;95774.44;5013976;28;20022;-67
2023/08/07 08:24:33;;;;;;;1.27;1.17;;;;;;;20.12;100.00;95779.31;5013858;28;20582;-67
2023/08/07 08:26:58;;;;;;;1.17;1.08;;;;;;;20.07;100.00;95813.84;5004514;28;20059;-67
2023/08/07 08:29:24;;;;;;;1.30;1.20;;;;;;;20.26;100.00;95797.06;5009836;28;20041;-67
2023/08/07 08:31:51;;;;;;;1.17;1.15;;;;;;;20.69;100.00;95819.97;5009059;28;20642;-67
2023/08/07 08:34:16;;;;;;;1.40;1.30;;;;;;;20.71;100.00;95862.59;5006909;28;20029;-67
2023/08/07 08:36:41;;;;;;;1.10;1.00;;;;;;;20.72;100.00;95897.16;5012921;28;20519;-67
2023/08/07 08:39:07;;;;;;;1.23;1.20;;;;;;;20.46;100.00;95921.97;5014045;28;20538;-67
2023/08/07 08:41:32;;;;;;;0.95;0.95;;;;;;;20.36;100.00;95890.25;5013685;28;20482;-67
2023/08/07 08:44:01;;;;;;;1.15;1.15;;;;;;;20.73;100.00;95935.44;5013340;28;20030;-67
2023/08/07 08:46:29;;;;;;;1.10;1.10;;;;;;;20.88;100.00;95967.41;5013633;28;20464;-67
2023/08/07 08:48:57;;;;;;;1.13;1.02;;;;;;;21.23;100.00;96012.84;5013786;28;20037;-68
2023/08/07 08:51:24;;;;;;;1.63;1.08;;;;;;;21.46;100.00;96655.28;5013977;28;20033;-67
2023/08/07 08:53:53;;;;;;;1.92;1.20;;;;;;;21.65;100.00;96534.31;5010071;28;20045;-67
2023/08/07 08:56:19;;;;;;;1.98;1.20;;;;;;;21.73;100.00;96470.72;5013941;28;20168;-67
2023/08/07 08:58:44;;;;;;;1.10;1.02;;;;;;;22.09;100.00;96377.75;5013681;28;20041;-65
2023/08/07 09:01:12;;;;;;;5.30;1.20;;;;;;;21.90;100.00;96296.22;5012901;28;20058;-65
2023/08/07 09:03:37;;;;;;;1.27;1.13;;;;;;;21.78;100.00;96220.13;5013636;28;20072;-65
2023/08/07 09:06:06;;;;;;;1.13;0.90;;;;;;;21.88;100.00;96114.19;5013987;28;20026;-65
2023/08/07 09:08:32;;;;;;;1.20;1.10;;;;;;;22.02;100.00;96090.06;5013517;28;20026;-65
2023/08/07 09:10:58;;;;;;;1.48;1.30;;;;;;;21.86;100.00;96059.13;5013640;28;20088;-65
2023/08/07 09:13:24;;;;;;;0.90;0.90;;;;;;;21.86;100.00;96006.34;5013124;28;20830;-65
2023/08/07 09:15:53;;;;;;;2.05;1.10;;;;;;;22.06;100.00;95940.38;5013990;28;20022;-65
2023/08/07 09:18:20;;;;;;;2.28;1.17;;;;;;;22.27;100.00;95872.25;5013253;28;20519;-65
2023/08/07 09:20:45;;;;;;;1.13;1.02;;;;;;;22.17;100.00;95762.78;5011627;28;20032;-65
2023/08/07 09:23:11;;;;;;;1.20;1.10;;;;;;;22.32;100.00;95671.31;5011896;28;20029;-65
2023/08/07 09:25:36;;;;;;;1.58;0.98;;;;;;;22.52;100.00;95617.59;5013516;28;20582;-65
2023/08/07 09:28:04;;;;;;;1.13;0.90;;;;;;;22.13;100.00;95565.88;5012893;28;20142;-64
2023/08/07 09:30:30;;;;;;;1.70;0.90;;;;;;;22.09;100.00;95559.31;5012486;28;20025;-64
2023/08/07 09:32:59;;;;;;;0.88;0.88;;;;;;;21.99;100.00;95544.53;5013881;28;20105;-65
2023/08/07 09:35:25;;;;;;;1.00;1.00;;;;;;;22.30;100.00;95477.66;5013971;28;20022;-65
2023/08/07 09:37:51;;;;;;;1.33;1.23;;;;;;;22.39;100.00;95405.81;5013654;28;20029;-64
2023/08/07 09:40:17;;;;;;;1.48;1.10;;;;;;;22.48;100.00;95364.28;5013619;28;20022;-65
2023/08/07 09:42:43;;;;;;;1.40;1.17;;;;;;;22.59;100.00;95312.53;5013372;28;20455;-65
2023/08/07 09:45:26;;;;;;;1.20;1.10;;;;;;;22.54;100.00;95277.53;5013370;28;20044;-65
2023/08/07 09:48:01;;;;;;;1.25;1.15;;;;;;;22.59;100.00;95250.03;5002385;28;20068;-65
2023/08/07 09:50:27;;;;;;;;;;;;;;;22.84;100.00;95196.19;5018559;28;20037;-65
2023/08/07 09:52:53;;;;;;;1.33;1.23;;;;;;;22.64;100.00;95096.44;5017235;28;20381;-65
2023/08/07 09:55:18;;;;;;;1.23;1.23;;;;;;;22.39;100.00;95137.66;5016979;28;20022;-64
2023/08/07 09:57:44;;;;;;;1.80;1.20;;;;;;;22.58;100.00;95111.59;5017080;28;20044;-64
2023/08/07 10:00:12;;;;;;;1.13;1.13;;;;;;;22.96;100.00;95026.31;5016948;28;20104;-65
2023/08/07 10:02:39;;;;;;;1.95;1.10;;;;;;;22.95;100.00;94993.28;5015729;28;20045;-65
2023/08/07 10:05:06;;;;;;;3.00;1.70;;;;;;;22.67;100.00;94911.69;5016241;28;20016;-64
2023/08/07 10:07:32;;;;;;;1.20;1.10;;;;;;;22.88;100.00;94783.31;5007463;28;20022;-65
2023/08/07 10:10:03;;;;;;;1.05;1.05;;;;;;;22.85;100.00;94685.31;5012382;28;20034;-64
2023/08/07 10:12:29;;;;;;;2.55;1.10;;;;;;;23.15;100.00;94600.13;5015826;28;20097;-66
2023/08/07 10:14:55;;;;;;;3.53;1.00;;;;;;;23.15;100.00;94547.28;5014696;28;20042;-67
2023/08/07 10:17:24;;;;;;;1.25;1.17;;;;;;;22.71;100.00;94437.25;5015722;28;20030;-64
2023/08/07 10:19:51;;;;;;;2.15;1.10;;;;;;;23.04;100.00;94440.84;5015427;28;20022;-64
2023/08/07 10:22:18;;;;;;;1.00;1.00;;;;;;;22.84;100.00;94396.63;5016151;28;20030;-64
2023/08/07 10:24:45;;;;;;;0.93;0.93;;;;;;;22.64;100.00;94270.31;5014791;28;20538;-64
2023/08/07 10:27:12;;;;;;;3.33;1.20;;;;;;;22.69;100.00;94239.00;5015795;28;20050;-64
2023/08/07 10:29:39;;;;;;;3.15;1.02;;;;;;;22.94;100.00;94180.47;4991005;28;20030;-64
2023/08/07 10:32:07;;;;;;;1.13;1.05;;;;;;;23.12;100.00;94131.78;5047973;28;20026;-64
2023/08/07 10:34:37;;;;;;;1.10;0.98;;;;;;;22.48;100.00;94092.41;5017425;28;20109;-64
2023/08/07 10:37:06;;;;;;;0.80;0.80;;;;;;;23.17;100.00;94040.53;5016075;28;20033;-67
2023/08/07 10:39:32;;;;;;;2.63;1.10;;;;;;;23.24;100.00;94023.38;5016337;28;20033;-67
2023/08/07 10:41:57;;;;;;;1.92;1.10;;;;;;;23.49;100.00;94006.59;5015184;28;20030;-68
2023/08/07 10:44:25;;;;;;;0.93;0.90;;;;;;;23.29;100.00;94052.94;4998074;28;20032;-64
2023/08/07 10:46:52;;;;;;;0.95;0.95;;;;;;;23.04;100.00;94185.91;5015676;28;20026;-64
2023/08/07 10:49:37;;;;;;;1.63;0.90;;;;;;;23.01;100.00;94068.34;5015707;28;20026;-67
2023/08/07 10:52:12;;;;;;;1.05;1.05;;;;;;;23.95;100.00;94142.09;5015967;28;20022;-66
2023/08/07 10:54:49;;;;;;;0.88;0.88;;;;;;;23.35;100.00;94255.97;5015949;28;20483;-66
2023/08/07 10:57:17;;;;;;;2.30;1.00;;;;;;;23.42;100.00;94105.34;5015260;28;20399;-66
2023/08/07 10:59:59;;;;;;;1.15;0.80;;;;;;;23.78;100.00;94137.75;5014929;28;20018;-67
2023/08/07 11:02:26;;;;;;;1.35;1.10;;;;;;;23.94;100.00;94246.09;5003618;28;20034;-67
2023/08/07 11:04:53;;;;;;;1.95;0.80;;;;;;;23.87;100.00;94296.56;5015105;28;20026;-67
2023/08/07 11:07:29;;;;;;;1.02;1.02;;;;;;;23.92;100.00;94258.97;5015033;28;20029;-67
2023/08/07 11:09:56;;;;;;;1.33;1.23;;;;;;;24.11;100.00;94210.16;5015523;28;20076;-65
2023/08/07 11:12:25;;;;;;;1.25;1.00;;;;;;;24.38;100.00;94433.19;5015551;28;20052;-65
2023/08/07 11:14:52;;;;;;;0.80;0.80;;;;;;;24.53;100.00;94505.09;5015187;28;20100;-64
2023/08/07 11:17:19;;;;;;;1.40;0.95;;;;;;;24.22;100.00;94564.03;5015575;28;20034;-64
2023/08/07 11:19:47;;;;;;;1.08;0.98;;;;;;;24.43;100.00;94604.56;5013583;28;20593;-64
2023/08/07 11:22:12;;;;;;;1.10;0.88;;;;;;;24.41;100.00;94679.28;5014115;28;20105;-65
2023/08/07 11:24:38;;;;;;;0.80;0.80;;;;;;;24.16;100.00;94618.81;5014014;28;20045;-65